Time;durP1;ratioP1;P1;durP2;ratioP2;P2;SDS_P1;SDS_P2;PMS_P1;PMS_P2;Temp;Humidity;BMP_temperature;BMP_pressure;BME280_temperature;BME280_humidity;BME280_pressure;Samples;Min_cycle;Max_cycle;Signal;HPM_P1;HPM_P2
2023/04/13 00:01:10;;;;;;;29.98;24.67;;;10.90;99.90;;;;;;6151990;23;20740;-84
2023/04/13 00:03:37;;;;;;;28.05;23.45;;;10.80;99.90;;;;;;6151285;23;20682;-83
2023/04/13 00:06:09;;;;;;;33.28;27.90;;;10.80;99.90;;;;;;6152128;23;20449;-84
2023/04/13 00:08:36;;;;;;;38.22;31.05;;;10.80;99.90;;;;;;6151358;23;20371;-84
2023/04/13 00:11:06;;;;;;;34.08;28.00;;;10.80;99.90;;;;;;6151533;23;20401;-83
2023/04/13 00:13:39;;;;;;;32.25;26.52;;;10.70;99.90;;;;;;6150605;23;20847;-83
2023/04/13 00:16:11;;;;;;;33.30;26.50;;;10.70;99.90;;;;;;6152147;23;20370;-84
2023/04/13 00:18:38;;;;;;;31.98;26.50;;;10.70;99.90;;;;;;6150623;23;20394;-84
2023/04/13 00:21:06;;;;;;;32.70;25.90;;;10.70;99.90;;;;;;6151261;23;20431;-83
2023/04/13 00:23:34;;;;;;;30.92;25.65;;;10.60;99.90;;;;;;6152647;23;20378;-83
2023/04/13 00:26:02;;;;;;;29.43;24.77;;;10.60;99.90;;;;;;6155764;23;20857;-83
2023/04/13 00:28:28;;;;;;;27.90;23.00;;;10.50;99.90;;;;;;6156842;23;20404;-83
2023/04/13 00:30:55;;;;;;;27.48;23.38;;;10.50;99.90;;;;;;6155499;23;20364;-83
2023/04/13 00:33:23;;;;;;;29.38;24.67;;;10.40;99.90;;;;;;6158531;23;20378;-83
2023/04/13 00:35:50;;;;;;;30.95;25.83;;;10.40;99.90;;;;;;6156595;23;20459;-83
2023/04/13 00:38:17;;;;;;;33.00;26.30;;;10.30;99.90;;;;;;6158815;23;20438;-84
2023/04/13 00:40:44;;;;;;;33.35;26.50;;;10.20;99.90;;;;;;6157007;23;20380;-84
2023/04/13 00:43:11;;;;;;;31.83;25.47;;;10.20;99.90;;;;;;6158101;23;20383;-83
2023/04/13 00:45:38;;;;;;;34.00;26.63;;;10.10;99.90;;;;;;6157431;23;20743;-84
2023/04/13 00:48:09;;;;;;;33.80;26.83;;;10.10;99.90;;;;;;6158219;23;20388;-84
2023/04/13 00:50:37;;;;;;;32.70;26.43;;;10.10;99.90;;;;;;6157972;23;20380;-84
2023/04/13 00:53:05;;;;;;;32.60;26.80;;;10.00;99.90;;;;;;6157651;23;21654;-84
2023/04/13 00:55:38;;;;;;;29.50;24.35;;;10.00;99.90;;;;;;6159040;23;20753;-84
2023/04/13 00:58:05;;;;;;;29.75;25.10;;;9.90;99.90;;;;;;6157420;23;20364;-84
2023/04/13 01:00:32;;;;;;;31.05;25.15;;;9.90;99.90;;;;;;6184418;23;20372;-84
2023/04/13 02:43:55;;;;;;;44.33;34.38;;;9.40;99.90;;;;;;6141928;23;20391;-79
2023/04/13 02:46:23;;;;;;;34.58;28.00;;;9.40;99.90;;;;;;6156855;23;20423;-81
2023/04/13 02:48:50;;;;;;;34.10;28.98;;;9.30;99.90;;;;;;6156497;23;20769;-79
2023/04/13 02:51:17;;;;;;;33.78;27.92;;;9.10;99.90;;;;;;6155526;23;20391;-79
2023/04/13 02:53:43;;;;;;;28.70;24.40;;;9.00;99.90;;;;;;6155720;23;20376;-79
2023/04/13 02:56:10;;;;;;;28.38;24.25;;;9.00;99.90;;;;;;6154991;23;20471;-79
2023/04/13 02:58:38;;;;;;;27.10;22.85;;;8.90;99.90;;;;;;6156357;23;20857;-80
2023/04/13 03:01:05;;;;;;;30.45;24.85;;;8.90;99.90;;;;;;6154984;23;20435;-80
2023/04/13 03:03:32;;;;;;;31.98;25.85;;;8.80;99.90;;;;;;6148119;23;20711;-79
2023/04/13 03:06:00;;;;;;;29.55;25.02;;;8.70;99.90;;;;;;6125448;23;20377;-80
2023/04/13 03:08:27;;;;;;;29.27;23.88;;;8.70;99.90;;;;;;6126757;23;20362;-79
2023/04/13 03:10:54;;;;;;;33.67;26.55;;;8.70;99.90;;;;;;6126632;23;20366;-80
2023/04/13 03:13:21;;;;;;;34.00;26.73;;;8.60;99.90;;;;;;6125421;23;20433;-80
2023/04/13 03:15:47;;;;;;;31.50;25.67;;;8.60;99.90;;;;;;6126295;23;20757;-79
2023/04/13 03:18:15;;;;;;;32.53;25.92;;;8.60;99.90;;;;;;6125165;23;20408;-78
2023/04/13 03:20:43;;;;;;;29.60;24.40;;;8.50;99.90;;;;;;6126692;23;20454;-77
2023/04/13 03:23:10;;;;;;;33.38;25.85;;;8.50;99.90;;;;;;6125010;23;20460;-80
2023/04/13 03:25:38;;;;;;;34.10;25.55;;;8.50;99.90;;;;;;6126404;23;20409;-79
2023/04/13 03:28:05;;;;;;;31.08;24.38;;;8.50;99.90;;;;;;6125773;23;20366;-80
2023/04/13 03:30:32;;;;;;;33.15;25.58;;;8.40;99.90;;;;;;6126083;23;20370;-80
2023/04/13 03:32:58;;;;;;;30.87;23.60;;;8.40;99.90;;;;;;6126770;23;20429;-80
2023/04/13 03:35:26;;;;;;;30.27;24.63;;;8.40;99.90;;;;;;6125820;23;20436;-79
2023/04/13 03:37:53;;;;;;;29.35;23.63;;;8.40;99.90;;;;;;6126648;23;20386;-80
2023/04/13 03:40:20;;;;;;;30.35;23.88;;;8.30;99.90;;;;;;6125763;23;20382;-79
2023/04/13 03:42:47;;;;;;;30.20;23.88;;;8.40;99.90;;;;;;6127114;23;20417;-79
2023/04/13 03:45:14;;;;;;;29.02;23.40;;;8.30;99.90;;;;;;6125101;23;20374;-80
2023/04/13 03:47:41;;;;;;;27.85;22.85;;;8.40;99.90;;;;;;6126891;23;20766;-79
2023/04/13 03:50:08;;;;;;;26.63;21.10;;;8.40;99.90;;;;;;6125305;23;20385;-80
2023/04/13 03:52:35;;;;;;;23.75;20.42;;;8.40;99.90;;;;;;6126545;23;20742;-78
2023/04/13 03:55:02;;;;;;;24.20;19.15;;;8.30;99.90;;;;;;6125961;23;20701;-79
2023/04/13 03:57:29;;;;;;;28.08;21.90;;;8.40;99.90;;;;;;6126593;23;20665;-78
2023/04/13 03:59:56;;;;;;;24.75;19.88;;;8.40;99.90;;;;;;6126361;23;20377;-78
2023/04/13 04:02:23;;;;;;;25.83;22.53;;;8.30;99.90;;;;;;6151324;23;20370;-78
2023/04/13 04:04:50;;;;;;;20.95;18.45;;;8.30;99.90;;;;;;6126533;23;20393;-77
2023/04/13 04:07:21;;;;;;;19.30;17.13;;;8.30;99.90;;;;;;6127150;23;20380;-78
2023/04/13 04:09:49;;;;;;;20.90;18.35;;;8.30;99.90;;;;;;6127849;23;20478;-79
2023/04/13 04:12:16;;;;;;;21.08;18.40;;;8.30;99.90;;;;;;6127635;23;20408;-80
2023/04/13 04:14:42;;;;;;;23.33;18.75;;;8.30;99.90;;;;;;6128223;23;20389;-80
2023/04/13 04:17:09;;;;;;;25.50;21.30;;;8.20;99.90;;;;;;6127618;23;20385;-80
2023/04/13 04:19:36;;;;;;;24.58;19.52;;;8.20;99.90;;;;;;6127843;23;20410;-79
2023/04/13 04:22:05;;;;;;;25.88;20.75;;;8.20;99.90;;;;;;6154232;23;20377;-80
2023/04/13 04:24:33;;;;;;;25.70;20.60;;;8.20;99.90;;;;;;6153004;23;20748;-80
2023/04/13 04:27:00;;;;;;;27.33;22.00;;;8.10;99.90;;;;;;6153731;23;20389;-81
2023/04/13 04:29:33;;;;;;;24.27;20.30;;;8.10;99.90;;;;;;6127189;23;20429;-80
2023/04/13 04:32:02;;;;;;;23.67;19.52;;;8.10;99.90;;;;;;6128173;23;20760;-80
2023/04/13 04:34:30;;;;;;;24.58;19.92;;;8.00;99.90;;;;;;6126846;23;20449;-79
2023/04/13 04:36:57;;;;;;;25.58;21.40;;;8.00;99.90;;;;;;6127650;23;20389;-80
2023/04/13 04:39:31;;;;;;;26.25;20.83;;;7.90;99.90;;;;;;6128342;23;20780;-80
2023/04/13 04:42:04;;;;;;;21.93;18.87;;;7.80;99.90;;;;;;6153513;23;20377;-79
2023/04/13 04:44:31;;;;;;;20.27;18.00;;;7.80;99.90;;;;;;6126982;23;20386;-80
2023/04/13 04:46:59;;;;;;;18.00;16.17;;;7.70;99.90;;;;;;6128299;23;20703;-80
2023/04/13 04:49:27;;;;;;;15.77;14.18;;;7.60;99.90;;;;;;6127393;23;20394;-80
2023/04/13 04:51:56;;;;;;;15.50;13.90;;;7.60;99.90;;;;;;6127870;23;20389;-78
2023/04/13 04:54:23;;;;;;;16.38;14.52;;;7.50;99.90;;;;;;6126841;23;20434;-79
2023/04/13 04:56:50;;;;;;;15.60;13.82;;;7.50;99.90;;;;;;6127857;23;20733;-80
2023/04/13 04:59:18;;;;;;;19.88;17.75;;;7.40;99.90;;;;;;6126705;23;20393;-79
2023/04/13 05:01:47;;;;;;;19.17;17.17;;;7.40;99.90;;;;;;6128074;23;20425;-80
2023/04/13 05:04:14;;;;;;;16.80;15.00;;;7.30;99.90;;;;;;6126588;23;20386;-80
2023/04/13 05:06:43;;;;;;;15.67;13.93;;;7.20;99.90;;;;;;6128114;23;20447;-79
2023/04/13 05:09:10;;;;;;;17.13;15.00;;;7.10;99.90;;;;;;6128251;23;20402;-80
2023/04/13 05:11:37;;;;;;;19.27;16.42;;;7.10;99.90;;;;;;6127016;23;20370;-79
2023/04/13 05:14:04;;;;;;;18.00;15.55;;;7.10;99.90;;;;;;6127928;23;20377;-80
2023/04/13 05:16:32;;;;;;;17.83;15.68;;;7.00;99.90;;;;;;6126176;23;20460;-79
2023/04/13 05:19:00;;;;;;;17.47;14.90;;;7.00;99.90;;;;;;6103665;23;20716;-80
2023/04/13 05:21:27;;;;;;;17.73;15.07;;;6.90;99.90;;;;;;6125999;23;20378;-80
2023/04/13 05:23:55;;;;;;;18.03;15.47;;;6.90;99.90;;;;;;6127854;23;20700;-79
2023/04/13 05:26:24;;;;;;;19.45;16.50;;;6.90;99.90;;;;;;6126367;23;20831;-80
2023/04/13 05:28:51;;;;;;;19.20;16.00;;;6.90;99.90;;;;;;6127384;23;20453;-80
2023/04/13 05:31:18;;;;;;;17.10;14.98;;;6.90;99.90;;;;;;6126190;23;20382;-80
2023/04/13 05:33:45;;;;;;;20.85;16.58;;;6.90;99.90;;;;;;6127144;23;20378;-79
2023/04/13 05:36:14;;;;;;;21.77;17.70;;;6.90;99.90;;;;;;6126661;23;20451;-80
2023/04/13 05:38:42;;;;;;;21.48;16.88;;;7.00;99.90;;;;;;6126357;23;20366;-81
2023/04/13 05:41:09;;;;;;;20.55;16.73;;;7.00;99.90;;;;;;6127359;23;20445;-80
2023/04/13 05:43:36;;;;;;;21.92;17.42;;;7.00;99.90;;;;;;6125696;23;20386;-79
2023/04/13 05:46:04;;;;;;;22.38;17.98;;;7.10;99.90;;;;;;6153189;23;20760;-80
2023/04/13 05:48:31;;;;;;;28.20;21.38;;;7.10;99.90;;;;;;6126148;23;20382;-79
2023/04/13 05:51:00;;;;;;;23.50;19.57;;;7.20;99.90;;;;;;6127762;23;20903;-80
2023/04/13 05:53:27;;;;;;;20.50;16.80;;;7.20;99.90;;;;;;6151955;23;20922;-79
2023/04/13 05:55:54;;;;;;;20.98;17.25;;;7.30;99.90;;;;;;6127314;23;20428;-80
2023/04/13 05:58:21;;;;;;;20.70;16.65;;;7.30;99.90;;;;;;6123737;23;20793;-80
2023/04/13 06:00:48;;;;;;;22.08;17.25;;;7.30;99.90;;;;;;6126810;23;20374;-80
2023/04/13 06:03:15;;;;;;;22.60;17.67;;;7.30;99.90;;;;;;6127382;23;20425;-78
2023/04/13 06:05:43;;;;;;;21.50;16.20;;;7.40;99.90;;;;;;6126313;23;20737;-80
2023/04/13 06:08:10;;;;;;;22.17;17.52;;;7.50;99.90;;;;;;6127396;23;20504;-78
2023/04/13 06:10:37;;;;;;;30.63;22.80;;;7.50;99.90;;;;;;6126285;23;20389;-80
2023/04/13 06:13:04;;;;;;;27.13;21.13;;;7.50;99.90;;;;;;6127130;23;20404;-80
2023/04/13 06:15:31;;;;;;;28.98;21.73;;;7.50;99.90;;;;;;6125676;23;20382;-78
2023/04/13 06:17:58;;;;;;;25.67;20.08;;;7.60;99.90;;;;;;6126435;23;20370;-78
2023/04/13 06:20:26;;;;;;;26.52;20.20;;;7.70;99.90;;;;;;6123260;23;20370;-79
2023/04/13 06:22:52;;;;;;;26.88;19.77;;;7.70;99.90;;;;;;6152424;23;20393;-81
2023/04/13 06:25:19;;;;;;;34.63;24.50;;;7.80;99.90;;;;;;6152412;23;20374;-78
2023/04/13 06:27:48;;;;;;;35.20;24.60;;;7.80;99.90;;;;;;6126352;23;20408;-77
2023/04/13 06:30:16;;;;;;;34.97;25.20;;;7.90;99.90;;;;;;6151741;23;20385;-78
2023/04/13 06:32:43;;;;;;;34.30;24.90;;;8.00;99.90;;;;;;6123410;23;20374;-79
2023/04/13 06:35:10;;;;;;;40.63;28.83;;;8.10;99.90;;;;;;6124738;23;20382;-78
2023/04/13 06:37:37;;;;;;;40.35;29.42;;;8.10;99.90;;;;;;6125663;23;20705;-78
2023/04/13 06:40:11;;;;;;;37.97;29.10;;;8.20;99.90;;;;;;6151380;23;20374;-78
2023/04/13 06:42:40;;;;;;;37.10;27.77;;;8.30;99.90;;;;;;6124752;23;20398;-80
2023/04/13 06:45:11;;;;;;;39.80;29.90;;;8.40;99.90;;;;;;6126481;23;20700;-81
2023/04/13 06:47:42;;;;;;;37.28;29.00;;;8.50;99.90;;;;;;6125701;23;20433;-79
2023/04/13 06:50:12;;;;;;;43.55;30.20;;;8.60;99.90;;;;;;6151244;23;20366;-78
2023/04/13 06:52:42;;;;;;;37.47;26.55;;;8.70;99.90;;;;;;6126142;23;20380;-78
2023/04/13 06:55:09;;;;;;;34.15;25.92;;;8.80;99.90;;;;;;6125869;23;20374;-80
2023/04/13 06:57:36;;;;;;;32.78;23.42;;;8.90;99.90;;;;;;6125591;23;20374;-79
2023/04/13 07:00:07;;;;;;;32.33;22.75;;;9.00;99.90;;;;;;6125020;23;20378;-79
2023/04/13 07:02:54;;;;;;;32.22;23.35;;;9.10;99.90;;;;;;6130391;23;20366;-78
2023/04/13 07:05:21;;;;;;;32.38;22.98;;;9.20;99.90;;;;;;6126351;23;20378;-78
2023/04/13 07:07:48;;;;;;;23.55;17.50;;;9.30;99.90;;;;;;6125040;23;20776;-78
2023/04/13 07:10:15;;;;;;;30.15;22.90;;;9.40;99.90;;;;;;6126625;23;20706;-78
2023/04/13 07:12:42;;;;;;;2.60;0.50;;;9.50;99.90;;;;;;6125670;23;20440;-78
2023/04/13 07:15:09;;;;;;;2.47;0.52;;;9.60;70.80;;;;;;6125351;23;20395;-79
2023/04/13 07:17:36;;;;;;;11.98;8.10;;;9.90;66.70;;;;;;6125260;23;20760;-79
2023/04/13 07:20:04;;;;;;;0.10;0.10;;;10.10;85.50;;;;;;6127027;23;20760;-80
2023/04/13 07:22:32;;;;;;;1.75;0.60;;;10.40;54.00;;;;;;6124960;23;20740;-79
2023/04/13 07:24:59;;;;;;;0.68;0.10;;;10.70;48.60;;;;;;6125351;23;20365;-80
2023/04/13 07:27:26;;;;;;;0.60;0.10;;;11.10;44.70;;;;;;6126503;23;20387;-78
2023/04/13 07:29:54;;;;;;;1.30;0.10;;;11.40;43.70;;;;;;6149844;23;20740;-79
2023/04/13 07:32:21;;;;;;;0.50;0.20;;;11.60;43.20;;;;;;6152254;23;20373;-80
2023/04/13 07:35:00;;;;;;;1.63;0.13;;;11.80;42.50;;;;;;6126651;23;20370;-78
2023/04/13 07:37:27;;;;;;;0.95;0.10;;;12.00;42.20;;;;;;6126462;23;20686;-78
2023/04/13 07:39:54;;;;;;;0.65;0.10;;;12.20;41.10;;;;;;6124791;23;20397;-81
2023/04/13 07:42:20;;;;;;;1.05;0.10;;;12.30;39.60;;;;;;6126476;23;20819;-79
2023/04/13 07:44:47;;;;;;;0.90;0.10;;;12.40;38.80;;;;;;6123968;23;20749;-81
2023/04/13 07:47:15;;;;;;;0.90;0.05;;;12.50;38.60;;;;;;6124958;23;20385;-79
2023/04/13 07:49:42;;;;;;;1.05;0.10;;;12.70;39.00;;;;;;6150067;23;20401;-79
2023/04/13 07:52:09;;;;;;;1.60;0.10;;;12.80;39.80;;;;;;6151179;23;20425;-78
2023/04/13 07:54:36;;;;;;;0.80;0.10;;;12.80;40.00;;;;;;6125402;23;20454;-79
2023/04/13 07:57:03;;;;;;;0.25;0.00;;;12.90;40.40;;;;;;6150682;23;20382;-78
2023/04/13 07:59:30;;;;;;;0.20;0.10;;;13.00;38.90;;;;;;6126314;23;20452;-78
2023/04/13 08:01:57;;;;;;;3.40;0.10;;;13.10;36.90;;;;;;6124900;23;20892;-78
2023/04/13 08:04:24;;;;;;;0.20;0.00;;;13.20;36.80;;;;;;6126100;23;20432;-78
2023/04/13 08:06:52;;;;;;;0.20;0.00;;;13.20;36.50;;;;;;6124333;23;20923;-78
2023/04/13 08:09:20;;;;;;;1.25;0.10;;;13.30;35.50;;;;;;6126194;23;20428;-79
2023/04/13 08:11:48;;;;;;;0.20;0.00;;;13.40;34.30;;;;;;6125145;23;20373;-77
2023/04/13 08:14:15;;;;;;;0.80;0.10;;;13.40;35.00;;;;;;6124895;23;20759;-78
2023/04/13 08:16:42;;;;;;;0.32;0.10;;;13.50;33.40;;;;;;6125521;23;20378;-79
2023/04/13 08:19:09;;;;;;;1.80;0.10;;;13.50;33.10;;;;;;6151186;23;20381;-78
2023/04/13 08:21:39;;;;;;;0.40;0.10;;;13.60;32.40;;;;;;6124050;23;20681;-78
2023/04/13 08:24:06;;;;;;;1.00;0.05;;;13.60;32.30;;;;;;6151752;23;20382;-79
2023/04/13 08:26:33;;;;;;;1.00;0.10;;;13.60;32.00;;;;;;6126087;23;20429;-79
2023/04/13 08:29:00;;;;;;;1.40;0.10;;;13.60;31.80;;;;;;6124678;23;20382;-81
2023/04/13 08:31:27;;;;;;;0.40;0.00;;;13.60;33.70;;;;;;6126233;23;20378;-78
2023/04/13 08:33:54;;;;;;;1.80;0.00;;;13.60;30.80;;;;;;6125222;23;20370;-78
2023/04/13 08:36:23;;;;;;;0.80;0.00;;;13.60;30.20;;;;;;6126205;23;20436;-79
2023/04/13 08:38:50;;;;;;;0.40;0.10;;;13.70;31.00;;;;;;6125521;23;20409;-77
2023/04/13 08:41:18;;;;;;;0.65;0.10;;;13.70;31.60;;;;;;6151458;23;20374;-78
2023/04/13 08:43:46;;;;;;;1.27;0.00;;;13.80;29.70;;;;;;6150608;23;20378;-78
2023/04/13 08:46:19;;;;;;;1.10;0.00;;;13.80;29.20;;;;;;6125963;23;20385;-79
2023/04/13 08:48:48;;;;;;;0.88;0.10;;;13.80;29.10;;;;;;6125580;23;20417;-80
2023/04/13 08:51:21;;;;;;;0.28;0.00;;;13.90;28.80;;;;;;6127358;23;20370;-80
2023/04/13 08:53:52;;;;;;;0.10;0.00;;;13.90;28.50;;;;;;6126367;23;20385;-78
2023/04/13 08:56:19;;;;;;;0.57;0.10;;;13.90;29.90;;;;;;6127624;23;20417;-77
2023/04/13 08:59:02;;;;;;;1.10;0.10;;;13.90;30.00;;;;;;6128430;23;20378;-78
2023/04/13 09:01:31;;;;;;;0.40;0.10;;;14.00;29.20;;;;;;6127542;23;20374;-78
2023/04/13 09:04:10;;;;;;;3.30;0.20;;;14.00;29.80;;;;;;6126419;23;20385;-81
2023/04/13 09:06:39;;;;;;;1.45;0.20;;;14.10;28.80;;;;;;6153044;23;20381;-77
2023/04/13 09:09:15;;;;;;;0.70;0.10;;;14.10;27.80;;;;;;6127524;23;20386;-78
2023/04/13 09:11:44;;;;;;;3.00;0.20;;;14.10;28.60;;;;;;6126569;23;20876;-79
2023/04/13 09:14:11;;;;;;;0.10;0.00;;;14.10;27.90;;;;;;6125634;23;20458;-78
2023/04/13 09:16:42;;;;;;;1.40;0.10;;;14.10;27.30;;;;;;6127056;23;20429;-78
2023/04/13 09:19:11;;;;;;;0.20;0.10;;;14.10;28.60;;;;;;6126308;23;20676;-78
2023/04/13 09:21:41;;;;;;;1.25;0.22;;;14.20;27.60;;;;;;6127423;23;20378;-78
2023/04/13 09:24:08;;;;;;;11.65;5.85;;;14.20;27.80;;;;;;6126500;23;20370;-77
2023/04/13 09:26:43;;;;;;;13.80;9.85;;;14.20;46.40;;;;;;6127092;23;20366;-79
2023/04/13 09:29:15;;;;;;;15.07;10.18;;;14.20;61.60;;;;;;6127037;23;20396;-80
2023/04/13 09:31:42;;;;;;;8.85;6.45;;;14.10;64.10;;;;;;6130640;23;20378;-78
2023/04/13 09:34:12;;;;;;;4.68;2.70;;;14.10;51.50;;;;;;6126643;23;20370;-77
2023/04/13 09:36:40;;;;;;;1.00;0.30;;;14.20;42.40;;;;;;6125611;23;20424;-78
2023/04/13 09:39:26;;;;;;;1.40;0.10;;;14.20;36.60;;;;;;6128161;23;20385;-77
2023/04/13 09:41:54;;;;;;;1.50;0.10;;;14.40;28.40;;;;;;6126925;23;20433;-81
2023/04/13 09:44:31;;;;;;;1.30;0.10;;;14.50;29.10;;;;;;6125878;23;20374;-81
2023/04/13 09:47:03;;;;;;;1.77;0.20;;;14.60;27.70;;;;;;6125685;23;20382;-78
2023/04/13 09:49:40;;;;;;;0.60;0.10;;;14.70;28.10;;;;;;6127250;23;20472;-80
2023/04/13 09:52:21;;;;;;;0.30;0.10;;;14.70;26.90;;;;;;6151440;23;20457;-80
2023/04/13 09:54:50;;;;;;;1.70;0.00;;;14.80;28.60;;;;;;6153094;23;20857;-79
2023/04/13 09:57:27;;;;;;;0.60;0.03;;;14.80;28.30;;;;;;6125137;23;22023;-80
2023/04/13 09:59:56;;;;;;;1.38;0.10;;;14.90;26.70;;;;;;6127170;23;20382;-80
2023/04/13 10:02:23;;;;;;;0.17;0.00;;;14.90;25.90;;;;;;6125993;23;20374;-81
2023/04/13 10:04:51;;;;;;;0.17;0.00;;;15.00;26.20;;;;;;6126583;23;20404;-77
2023/04/13 10:07:19;;;;;;;1.57;0.50;;;15.00;27.20;;;;;;6125687;23;20406;-83
2023/04/13 10:09:46;;;;;;;3.10;0.80;;;15.10;25.50;;;;;;6126223;23;20405;-81
2023/04/13 10:12:16;;;;;;;0.68;0.30;;;15.10;26.30;;;;;;6126040;23;20690;-82
2023/04/13 10:14:47;;;;;;;0.20;0.08;;;15.20;25.90;;;;;;6124894;23;20721;-78
2023/04/13 10:17:42;;;;;;;0.20;0.05;;;15.30;25.10;;;;;;6124914;23;20686;-78
2023/04/13 10:20:12;;;;;;;0.40;0.00;;;15.30;25.70;;;;;;6125695;23;20374;-79
2023/04/13 10:22:42;;;;;;;0.30;0.08;;;15.40;25.00;;;;;;6128403;23;20464;-78
2023/04/13 10:25:17;;;;;;;0.93;0.10;;;15.60;25.40;;;;;;6126422;23;20441;-79
2023/04/13 10:27:59;;;;;;;0.88;0.03;;;15.60;23.90;;;;;;6130747;23;20374;-79
2023/04/13 10:30:27;;;;;;;0.50;0.00;;;15.60;23.60;;;;;;6123834;23;20370;-79
2023/04/13 10:33:05;;;;;;;0.20;0.00;;;15.60;23.80;;;;;;6125331;23;20424;-82
2023/04/13 10:35:39;;;;;;;0.35;0.03;;;15.70;24.20;;;;;;6150938;23;20366;-78
2023/04/13 10:38:09;;;;;;;0.10;0.00;;;15.70;24.10;;;;;;6127051;23;20377;-79
2023/04/13 10:40:46;;;;;;;2.03;0.20;;;15.80;23.70;;;;;;6150877;23;20903;-79
2023/04/13 10:43:30;;;;;;;0.80;0.00;;;15.90;23.60;;;;;;6152154;23;20452;-79
2023/04/13 10:46:13;;;;;;;0.03;0.00;;;15.90;23.30;;;;;;6127424;23;20480;-79
2023/04/13 10:48:41;;;;;;;0.00;0.00;;;15.80;23.80;;;;;;6126031;23;20745;-78
2023/04/13 10:51:08;;;;;;;1.20;0.20;;;15.70;23.30;;;;;;6126744;23;20745;-78
2023/04/13 10:53:35;;;;;;;2.00;0.30;;;15.70;23.20;;;;;;6125542;23;20378;-79
2023/04/13 10:56:03;;;;;;;5.13;0.22;;;15.60;23.40;;;;;;6153116;23;20590;-79
2023/04/13 10:58:31;;;;;;;1.33;0.10;;;15.50;23.00;;;;;;6126715;23;20383;-79
2023/04/13 11:00:59;;;;;;;0.20;0.00;;;15.50;24.50;;;;;;6127023;23;20370;-78
2023/04/13 11:03:27;;;;;;;0.40;0.13;;;15.50;23.60;;;;;;6125395;23;20408;-79
2023/04/13 11:05:57;;;;;;;0.30;0.10;;;15.60;24.30;;;;;;6126926;23;20438;-79
2023/04/13 11:08:24;;;;;;;3.70;0.30;;;15.60;23.70;;;;;;6125209;23;20428;-79
2023/04/13 11:10:52;;;;;;;0.20;0.10;;;15.60;23.20;;;;;;6127134;23;20443;-78
2023/04/13 11:13:20;;;;;;;0.30;0.10;;;15.60;24.10;;;;;;6151751;23;20366;-79
2023/04/13 11:15:48;;;;;;;0.60;0.10;;;15.60;24.00;;;;;;6126841;23;20693;-79
2023/04/13 11:18:26;;;;;;;0.77;0.10;;;15.60;23.20;;;;;;6126175;23;20386;-79
2023/04/13 11:20:54;;;;;;;0.40;0.10;;;15.60;23.60;;;;;;6125370;23;20729;-79
2023/04/13 11:23:22;;;;;;;0.55;0.10;;;15.60;23.00;;;;;;6126654;23;20425;-78
2023/04/13 11:25:57;;;;;;;1.13;0.10;;;15.60;23.50;;;;;;6125497;23;20378;-79
2023/04/13 11:28:34;;;;;;;1.20;0.10;;;15.60;22.90;;;;;;6126576;23;20426;-79
2023/04/13 11:31:01;;;;;;;0.30;0.10;;;15.60;24.00;;;;;;6125768;23;20401;-79
2023/04/13 11:33:29;;;;;;;1.10;0.30;;;15.60;24.00;;;;;;6126358;23;20378;-79
2023/04/13 11:35:58;;;;;;;0.50;0.10;;;15.60;24.70;;;;;;6125619;23;20835;-78
2023/04/13 11:38:27;;;;;;;0.50;0.10;;;15.70;24.70;;;;;;6126010;23;20373;-78
2023/04/13 11:41:01;;;;;;;0.20;0.10;;;15.80;23.60;;;;;;6125325;23;20378;-79
2023/04/13 11:43:44;;;;;;;0.20;0.10;;;15.80;23.90;;;;;;6128158;23;20382;-79
2023/04/13 11:46:14;;;;;;;0.70;0.40;;;15.80;25.40;;;;;;6126516;23;20377;-79
2023/04/13 11:48:42;;;;;;;0.30;0.28;;;15.80;32.90;;;;;;6125776;23;20382;-79
2023/04/13 11:51:10;;;;;;;0.30;0.20;;;15.80;35.50;;;;;;6126174;23;20708;-79
2023/04/13 11:53:39;;;;;;;0.85;0.20;;;15.80;36.00;;;;;;6151983;23;20385;-79
2023/04/13 11:56:06;;;;;;;0.20;0.10;;;15.80;32.80;;;;;;6125631;23;20382;-79
2023/04/13 11:58:33;;;;;;;1.35;0.10;;;15.80;27.90;;;;;;6125998;23;20465;-79
2023/04/13 12:01:06;;;;;;;0.40;0.10;;;15.80;24.10;;;;;;6125705;23;20373;-78
2023/04/13 12:03:40;;;;;;;1.15;0.10;;;15.90;24.40;;;;;;6128064;23;20685;-79
2023/04/13 12:06:29;;;;;;;0.50;0.10;;;15.90;23.30;;;;;;6129724;23;20432;-79
2023/04/13 12:09:01;;;;;;;0.27;0.10;;;16.00;22.70;;;;;;6126508;23;20382;-78
2023/04/13 12:11:39;;;;;;;0.70;0.20;;;16.10;23.40;;;;;;6127420;23;20432;-78
2023/04/13 12:14:21;;;;;;;0.95;0.20;;;16.20;23.10;;;;;;6126833;23;20382;-80
2023/04/13 12:16:51;;;;;;;0.70;0.10;;;16.20;23.10;;;;;;6126293;23;20373;-80
2023/04/13 12:19:22;;;;;;;0.30;0.10;;;16.20;23.50;;;;;;6152661;23;20783;-80
2023/04/13 12:21:54;;;;;;;0.60;0.10;;;16.20;23.00;;;;;;6127473;23;20386;-83
2023/04/13 12:24:35;;;;;;;0.80;0.10;;;16.10;23.40;;;;;;6126516;23;20382;-80
2023/04/13 12:27:04;;;;;;;2.80;0.10;;;16.10;22.10;;;;;;6126393;23;20517;-79
2023/04/13 12:29:38;;;;;;;0.35;0.10;;;16.10;23.20;;;;;;6155848;23;20449;-83
2023/04/13 12:32:12;;;;;;;0.50;0.10;;;16.10;23.40;;;;;;6127280;23;20402;-79
2023/04/13 12:34:40;;;;;;;0.60;0.05;;;16.00;22.40;;;;;;6154188;23;20440;-78
2023/04/13 12:37:09;;;;;;;0.32;0.00;;;16.00;22.20;;;;;;6127791;23;20431;-80
2023/04/13 12:39:36;;;;;;;1.15;0.10;;;16.00;22.80;;;;;;6127775;23;20370;-78
2023/04/13 12:42:03;;;;;;;0.08;0.00;;;16.00;22.70;;;;;;6126793;23;20374;-80
2023/04/13 12:44:31;;;;;;;0.60;0.00;;;16.00;23.10;;;;;;6153746;23;20445;-79
2023/04/13 12:47:00;;;;;;;0.10;0.00;;;16.00;22.50;;;;;;6127214;23;20545;-79
2023/04/13 12:49:27;;;;;;;0.70;0.10;;;15.90;22.60;;;;;;6128188;23;20374;-79
2023/04/13 12:51:54;;;;;;;0.60;0.10;;;15.90;22.60;;;;;;6126904;23;20366;-80
2023/04/13 12:54:21;;;;;;;0.85;0.10;;;16.00;23.70;;;;;;6127998;23;20397;-80
2023/04/13 12:56:50;;;;;;;0.33;0.10;;;16.00;22.90;;;;;;6125868;23;20444;-82
2023/04/13 12:59:20;;;;;;;0.50;0.10;;;16.00;22.60;;;;;;6127335;23;20716;-80
2023/04/13 13:01:48;;;;;;;1.20;0.10;;;16.10;22.50;;;;;;6126776;23;20384;-80
2023/04/13 13:04:15;;;;;;;1.10;0.00;;;16.10;22.10;;;;;;6153822;23;20390;-79
2023/04/13 13:06:42;;;;;;;0.30;0.10;;;16.10;22.90;;;;;;6127732;23;20370;-79
2023/04/13 13:09:09;;;;;;;3.03;0.30;;;16.10;22.30;;;;;;6152645;23;20410;-80
2023/04/13 13:11:36;;;;;;;0.20;0.10;;;16.10;22.40;;;;;;6127032;23;20428;-79
2023/04/13 13:14:03;;;;;;;0.20;0.10;;;16.20;22.40;;;;;;6126791;23;20374;-78
2023/04/13 13:16:31;;;;;;;0.52;0.05;;;16.20;22.90;;;;;;6127431;23;20374;-80
2023/04/13 13:18:57;;;;;;;0.70;0.10;;;16.30;22.80;;;;;;6152456;23;20392;-79
2023/04/13 13:21:25;;;;;;;0.43;0.00;;;16.40;22.60;;;;;;6127214;23;20378;-79
2023/04/13 13:23:52;;;;;;;1.10;0.10;;;16.40;22.40;;;;;;6126733;23;20461;-79
2023/04/13 13:26:19;;;;;;;1.52;0.20;;;16.40;21.80;;;;;;6127744;23;20374;-79
2023/04/13 13:28:52;;;;;;;0.85;0.10;;;16.40;21.80;;;;;;6127134;23;20370;-79
2023/04/13 13:31:19;;;;;;;1.60;0.20;;;16.50;23.20;;;;;;6152924;23;20374;-80
2023/04/13 13:33:46;;;;;;;0.20;0.10;;;16.50;22.40;;;;;;6153361;23;20397;-81
2023/04/13 13:36:14;;;;;;;0.68;0.00;;;16.60;22.20;;;;;;6126928;23;20370;-79
2023/04/13 13:38:41;;;;;;;0.10;0.00;;;16.50;21.60;;;;;;6127276;23;20390;-80
2023/04/13 13:41:09;;;;;;;0.90;0.00;;;16.60;21.80;;;;;;6126380;23;20751;-79
2023/04/13 13:43:37;;;;;;;0.50;0.10;;;16.60;21.60;;;;;;6127373;23;20384;-79
2023/04/13 13:46:04;;;;;;;0.30;0.10;;;16.60;21.60;;;;;;6126710;23;20374;-79
2023/04/13 13:48:31;;;;;;;4.07;0.10;;;16.70;21.90;;;;;;6127437;23;20694;-79
2023/04/13 13:50:59;;;;;;;2.25;0.10;;;16.80;21.60;;;;;;6126376;23;20381;-82
2023/04/13 13:53:26;;;;;;;1.10;0.20;;;16.90;22.80;;;;;;6153286;23;20748;-79
2023/04/13 13:55:54;;;;;;;0.70;0.10;;;17.00;21.70;;;;;;6126265;23;20405;-80
2023/04/13 13:58:21;;;;;;;0.10;0.00;;;17.00;21.80;;;;;;6127238;23;20448;-80
2023/04/13 14:00:49;;;;;;;0.82;0.10;;;17.00;21.10;;;;;;6127446;23;20456;-80
2023/04/13 14:03:16;;;;;;;0.88;0.20;;;17.10;22.10;;;;;;6126520;23;20414;-80
2023/04/13 14:05:43;;;;;;;1.55;0.15;;;16.90;31.30;;;;;;6127394;23;20751;-80
2023/04/13 14:08:10;;;;;;;0.55;0.10;;;17.00;31.90;;;;;;6126054;23;20409;-80
2023/04/13 14:10:37;;;;;;;0.20;0.10;;;17.00;32.00;;;;;;6127253;23;20377;-80
2023/04/13 14:13:05;;;;;;;0.30;0.10;;;17.10;31.10;;;;;;6126326;23;20374;-79
2023/04/13 14:15:32;;;;;;;0.40;0.10;;;17.10;32.00;;;;;;6127316;23;20414;-80
2023/04/13 14:17:59;;;;;;;0.22;0.10;;;17.20;31.30;;;;;;6126466;23;20386;-80
2023/04/13 14:20:38;;;;;;;0.30;0.10;;;17.20;31.40;;;;;;6129307;23;20370;-80
2023/04/13 14:23:07;;;;;;;0.73;0.22;;;17.10;30.30;;;;;;6126612;23;20764;-80
2023/04/13 14:25:35;;;;;;;0.50;0.15;;;17.10;29.90;;;;;;6127194;23;20377;-80
2023/04/13 14:28:02;;;;;;;0.70;0.20;;;17.10;31.80;;;;;;6126613;23;20398;-80
2023/04/13 14:30:29;;;;;;;0.75;0.20;;;17.00;32.20;;;;;;6127056;23;20370;-81